Nearby METAR Reports

 

KIAG - Niagara Falls, New York, USA
Distance from station: W 12mi, 20km
Updated: 01/19/2018 7:53am
Overcast
Overcast
 Wind from SW
Wind: SW 21 mph , 33 km/h
Temperature: 28°F , -2°C
Wind Chill: 14°F , -10°C
Dew Point: 18°F , -8°C
Humidity: 64%
Barometer: 1014.2 hPa
Clouds: Overcast
Visibility: 10 miles , 16 km
Cloud details: Overcast 2800 ft
2018/01/19 12:53 KIAG 191253Z 23018KT 10SM OVC028 M02/M08 A2995 RMK AO2 PK WND 24026/1226 SLP159 T10171078
KBUF - Buffalo/Cheektow, New York, USA
Distance from station: S 13mi, 21km
Updated: 01/19/2018 7:54am
Overcast
Overcast
 Wind from WSW
Wind: WSW 22 mph , 35 km/h, Gust: 29 mph , 46 km/h
Temperature: 27°F , -3°C
Wind Chill: 13°F , -11°C
Dew Point: 18°F , -8°C
Humidity: 69%
Barometer: 1014.2 hPa
Clouds: Overcast
Visibility: 10 miles , 16 km
Cloud details: Overcast 2800 ft
2018/01/19 12:54 KBUF 191254Z 24019G25KT 10SM OVC028 M03/M08 A2995 RMK AO2 PK WND 23028/1158 SLP154 T10281078
 
KROC - Rochester, New York, USA
Distance from station: E 51mi, 82km
Updated: 01/19/2018 7:54am
Overcast
Overcast
 Wind from W
Wind: W 18 mph , 30 km/h
Temperature: 30°F , -1°C
Wind Chill: 18°F , -8°C
Dew Point: 19°F , -7°C
Humidity: 64%
Barometer: 1014.2 hPa
Clouds: Overcast
Visibility: 10 miles , 16 km
Cloud details: Mostly cloudy 3100 ft
Overcast 3500 ft
2018/01/19 12:54 KROC 191254Z 26016KT 10SM BKN031 OVC035 M01/M07 A2995 RMK AO2 SLP153 T10111072
CYSN - St. Catharines A, Ontario, Canada
Distance from station: WNW 25mi, 40km
Updated: 01/19/2018 7:00am
Mostly cloudy
Mostly cloudy
 Wind from SW
Wind: SW 21 mph , 33 km/h, Gust: 28 mph , 44 km/h
Temperature: 28°F , -2°C
Wind Chill: 14°F , -10°C
Dew Point: 19°F , -7°C
Humidity: 69%
Barometer: 1014.2 hPa
Clouds: Mostly cloudy
Visibility: 12 miles , 19 km
Cloud details: Partly cloudy 3000 ft
Mostly cloudy 18000 ft
2018/01/19 12:00 CYSN 191200Z 23018G24KT 12SM SCT030 BKN180 M02/M07 A2995 RMK SC3AC4 SLP148
 
KOLE - Olean, New York, USA
Distance from station: SSE 63mi, 102km
Updated: 01/19/2018 7:55am
Clear
Clear
 Wind from WSW
Wind: WSW 8 mph , 13 km/h
Temperature: 16°F , -9°C
Wind Chill: 5°F , -15°C
Dew Point: 10°F , -12°C
Humidity: 79%
Barometer: 1012.9 hPa
Clouds: Clear
Visibility: 10 miles , 16 km
2018/01/19 12:55 KOLE 191255Z AUTO 24007KT 220V280 10SM CLR M09/M12 A2991 RMK AO2
KJHW - Jamestown, New York, USA
Distance from station: SSW 74mi, 119km
Updated: 01/19/2018 7:56am
Clear
Clear
 Wind from SW
Wind: SW 13 mph , 20 km/h
Temperature: 18°F , -8°C
Wind Chill: 5°F , -15°C
Dew Point: 10°F , -12°C
Humidity: 73%
Barometer: 1014.6 hPa
Clouds: Clear
Visibility: 10 miles , 16 km
2018/01/19 12:56 KJHW 191256Z AUTO 22011KT 10SM CLR M08/M12 A2996 RMK AO2 SLP178 T10831117 FZRANO
 
CWWZ - Port Weller (mar, Ontario, Canada
Distance from station: WNW 28mi, 45km
Updated: 01/19/2018 7:00am

 Wind from WSW
Wind: WSW 10 mph , 17 km/h
Temperature: 28°F , -2°C
Wind Chill: 19°F , -7°C
Dew Point: 21°F , -6°C
Humidity: 74%
2018/01/19 12:00 CWWZ 191200Z AUTO 24009KT M02/M06 RMK AO1 SOG 03 1004 PK WND 22017/1119 SLP146 T10191058
CWPC - Port Colborne(Au, Ontario, Canada
Distance from station: WSW 33mi, 53km
Updated: 01/19/2018 7:00am

 Wind from WSW
Wind: WSW 26 mph , 43 km/h
Temperature: 27°F , -3°C
Wind Chill: 12°F , -11°C
Dew Point: 18°F , -8°C
Humidity: 69%
2018/01/19 12:00 CWPC 191200Z AUTO 25023KT M03/M08 RMK AO1 PK WND 25031/1112 SLP153 T10291079 51005
 
CXVN - Vineland (au8), Ontario, Canada
Distance from station: W 36mi, 58km
Updated: 01/19/2018 7:00am

 Wind from SW
Wind: SW 14 mph , 22 km/h, Gust: 20 mph , 31 km/h
Temperature: 27°F , -3°C
Wind Chill: 16°F , -9°C
Dew Point: 19°F , -7°C
Humidity: 74%
2018/01/19 12:00 CXVN 191200Z AUTO 22012G17KT M03/M07 RMK AO1 SOG 04 2004 PK WND 21017/1102 SLP142 T10281074
CYTZ - Toronto Il Vor, Ontario, Canada
Distance from station: NW 50mi, 81km
Updated: 01/19/2018 7:00am
Overcast
Overcast
 Wind from WSW
Wind: WSW 20 mph , 31 km/h
Temperature: 27°F , -3°C
Wind Chill: 13°F , -11°C
Dew Point: 19°F , -7°C
Humidity: 74%
Barometer: 1013.5 hPa
Clouds: Overcast
Visibility: 9 miles , 14 km
Cloud details: Overcast 3500 ft
2018/01/19 12:00 CYTZ 191200Z AUTO 24017KT 9SM OVC035 M03/M07 A2993 RMK SLP141
 
CXTO - Toronto City, Ontario, Canada
Distance from station: NW 52mi, 84km
Updated: 01/19/2018 7:00am

 
Temperature: 27°F , -3°C
Dew Point: 18°F , -8°C
Humidity: 69%
2018/01/19 12:00 CXTO 191200Z AUTO M03/M08 RMK AO1 SOG 04 3003 SLP135 T10291082
KDKK - Dunkirk, New York, USA
Distance from station: SW 52mi, 84km
Updated: 01/19/2018 7:53am
Overcast
Overcast
 Wind from SW
Wind: SW 15 mph , 24 km/h
Temperature: 25°F , -4°C
Wind Chill: 13°F , -11°C
Dew Point: 14°F , -10°C
Humidity: 63%
Barometer: 1015.6 hPa
Clouds: Overcast
Visibility: 10 miles , 16 km
Cloud details: Overcast 2900 ft
2018/01/19 12:53 KDKK 191253Z AUTO 22013KT 10SM OVC029 M04/M10 A2999 RMK AO2 SLP165 T10391100
 
CYOO - Oshawa, Ontario, Canada
Distance from station: N 56mi, 90km
Updated: 01/19/2018 7:00am
Overcast
Overcast
 Wind from WSW
Wind: WSW 10 mph , 17 km/h
Temperature: 27°F , -3°C
Wind Chill: 18°F , -8°C
Dew Point: 18°F , -8°C
Humidity: 69%
Barometer: 1012.9 hPa
Clouds: Overcast
Visibility: 9 miles , 14 km
Cloud details: Overcast 3300 ft
2018/01/19 12:00 CYOO 191200Z AUTO 25009KT 9SM OVC033 M03/M08 A2991 RMK SLP136
CWWB - Burlington Piers, Ontario, Canada
Distance from station: WNW 56mi, 91km
Updated: 01/19/2018 7:00am

 
Temperature: 28°F , -2°C
Dew Point: 19°F , -7°C
Humidity: 69%
2018/01/19 12:00 CWWB 191200Z AUTO M02/M07 RMK AO1 SLP145 T10211069 53004
 
CYYZ - Toronto/Pearson, Ontario, Canada
Distance from station: NW 60mi, 96km
Updated: 01/19/2018 7:00am
Mostly cloudy
Mostly cloudy
 Wind from WSW
Wind: WSW 14 mph , 22 km/h, Gust: 21 mph , 33 km/h
Temperature: 25°F , -4°C
Wind Chill: 13°F , -11°C
Dew Point: 16°F , -9°C
Humidity: 69%
Barometer: 1012.5 hPa
Clouds: Mostly cloudy
Visibility: 15 miles , 24 km
Cloud details: Mostly cloudy 3400 ft
2018/01/19 12:00 CYYZ 191200Z 24012G18KT 15SM BKN034 M04/M09 A2990 RMK SC7 SLP138
CYKZ - Toronto Buttonvi, Ontario, Canada
Distance from station: NW 62mi, 99km
Updated: 01/19/2018 7:00am
Overcast
Overcast
 Wind from SW
Wind: SW 10 mph , 17 km/h, Gust: 18 mph , 30 km/h
Temperature: 25°F , -4°C
Wind Chill: 15°F , -9°C
Dew Point: 16°F , -9°C
Humidity: 69%
Barometer: 1012.2 hPa
Clouds: Overcast
Visibility: 10 miles , 16 km
Cloud details: Mostly cloudy 1900 ft
Overcast 3400 ft
2018/01/19 12:00 CYKZ 191200Z 23009G16KT 200V260 10SM BKN019 OVC034 M04/M09 A2989 RMK SC5SC3 SLP135
 
CXHM - Hamilton Rbg Cs, Ontario, Canada
Distance from station: W 62mi, 100km
Updated: 01/19/2018 7:00am

 Wind from WSW
Wind: WSW 7 mph , 11 km/h
Temperature: 27°F , -3°C
Wind Chill: 19°F , -7°C
Dew Point: 21°F , -6°C
Humidity: 80%
2018/01/19 12:00 CXHM 191200Z AUTO 24006KT M03/M06 RMK AO1 SLP140 T10311055 53005
KDSV - Dansville, New York, USA
Distance from station: SE 62mi, 100km
Updated: 01/19/2018 7:54am
Overcast
Overcast
 Wind from SSE
Wind: SSE 7 mph , 11 km/h
Temperature: 21°F , -6°C
Wind Chill: 12°F , -11°C
Dew Point: 12°F , -11°C
Humidity: 68%
Barometer: 1015.2 hPa
Clouds: Overcast
Visibility: 10 miles , 16 km
Cloud details: Overcast 3200 ft
2018/01/19 12:54 KDSV 191254Z AUTO 15006KT 10SM OVC032 M06/M11 A2998 RMK AO2 SLP173 T10611106
 
CYHM - Hamilton Airport, Ontario, Canada
Distance from station: W 63mi, 101km
Updated: 01/19/2018 7:00am
Overcast
Overcast
 Wind from SW
Wind: SW 15 mph , 24 km/h, Gust: 21 mph , 33 km/h
Temperature: 25°F , -4°C
Wind Chill: 13°F , -11°C
Dew Point: 18°F , -8°C
Humidity: 74%
Barometer: 1013.2 hPa
Clouds: Overcast
Visibility: 15 miles , 24 km
Cloud details: Overcast 2300 ft
2018/01/19 12:00 CYHM 191200Z 23013G18KT 15SM OVC023 M04/M08 A2992 RMK SC8 SLP147
CWNC - Cobourg (mars), Ontario, Canada
Distance from station: NNE 63mi, 102km
Updated: 01/19/2018 7:00am

 Wind from WNW
Wind: WNW 9 mph , 15 km/h
Temperature: 28°F , -2°C
Wind Chill: 19°F , -7°C
Dew Point: 21°F , -6°C
Humidity: 74%
2018/01/19 12:00 CWNC 191200Z AUTO 29008KT M02/M06 RMK AO1 SOG 03 3006 SLP126 T10161064